Back to Top

Current Local METAR Station Weather Reports...

Local METAR Reports

Local METAR Reports

 

EGNJ - Humberside, United Kingdom
Distance from station: ESE 12mi, 20km
Updated: Mon, 19-Oct-2020 9:50pm BST
Clear
Clear
 Wind from SSE
Wind: SSE 20 mph , 31 km/h
Temperature: 12°C
Dew Point: 8°C
Humidity: 77%
Barometer: 1007 hPa
Clouds: Clear
Visibility: 6 miles , 10 km
2020/10/19 20:50 EGNJ 192050Z AUTO 16017KT 9999 NCD 12/08 Q1007
EGXV - Leconfield (aut), United Kingdom
Distance from station: NNE 16mi, 26km
Updated: Mon, 19-Oct-2020 9:50pm BST
Overcast
Overcast
 Wind from SSE
Wind: SSE 12 mph , 19 km/h
Temperature: 12°C
Dew Point: 7°C
Humidity: 72%
Barometer: 1006 hPa
Clouds: Overcast
Visibility: 6 miles , 10 km
Cloud details: Overcast 1524 m
2020/10/19 20:50 EGXV 192050Z AUTO 16010KT 9999 OVC050/// 12/07 Q1006 RERA
 
EGCN - Doncaster Sheffi, United Kingdom
Distance from station: SW 20mi, 32km
Updated: Mon, 19-Oct-2020 9:50pm BST
Clear
Clear
 Wind from SE
Wind: SE 9 mph , 15 km/h
Temperature: 11°C
Dew Point: 7°C
Humidity: 77%
Barometer: 1007 hPa
Summary: Clear
Visibility: greater than 7 miles , 10 km
2020/10/19 20:50 EGCN 192050Z 14008KT 120V180 CAVOK 11/07 Q1007 RERA
EGXP - Scampton Raf, United Kingdom
Distance from station: S 25mi, 39km
Updated: Mon, 19-Oct-2020 9:50pm BST
Partly Cloudy
Partly Cloudy
 Wind from SSE
Wind: SSE 16 mph , 26 km/h
Temperature: 11°C
Dew Point: 7°C
Humidity: 77%
Barometer: 1006 hPa
Clouds: Partly Cloudy
Visibility: 6 miles , 10 km
Cloud details: Partly Cloudy 4267 m
2020/10/19 20:50 EGXP 192050Z AUTO 16014KT 9999 // SCT140/// 11/07 Q1006
 
EGXW - Waddington Raf, United Kingdom
Distance from station: S 33mi, 53km
Updated: Mon, 19-Oct-2020 9:50pm BST
Mostly Cloudy
Mostly Cloudy
 Wind from SE
Wind: SE 18 mph , 30 km/h
Temperature: 11°C
Dew Point: 7°C
Humidity: 77%
Barometer: 1006 hPa
Clouds: Mostly Cloudy
Visibility: 6 miles , 10 km
Cloud details: Partly Cloudy 2743 m
Mostly Cloudy 4572 m
2020/10/19 20:50 EGXW 192050Z AUTO 14016KT 9999 SCT090/// BKN150/// 11/07 Q1006 RERA
EGXS - Donna Nook Raf, United Kingdom
Distance from station: ESE 33mi, 54km
Updated: Mon, 19-Oct-2020 9:50pm BST
Mostly Cloudy
Mostly Cloudy
 Wind from SSE
Wind: SSE 18 mph , 30 km/h
Temperature: 11°C
Dew Point: 7°C
Humidity: 77%
Barometer: 1007 hPa
Clouds: Mostly Cloudy
Visibility: 6 miles , 10 km
Cloud details: Mostly Cloudy 3353 m
2020/10/19 20:50 EGXS 192050Z AUTO 15016KT 9999 // BKN110/// 11/07 Q1007
 
EGXU - Linton-On-Ouse R, United Kingdom
Distance from station: NW 38mi, 61km
Updated: Mon, 19-Oct-2020 9:50pm BST
Light rain, Mostly cloudy
Light rain, Mostly cloudy
 Wind from SE
Wind: SE 12 mph , 19 km/h
Temperature: 11°C
Dew Point: 7°C
Humidity: 77%
Barometer: 1005 hPa
Summary: Light Rain
Clouds: Mostly Cloudy
Visibility: 6 miles , 10 km
Cloud details: Mostly Cloudy 1829 m
2020/10/19 20:50 EGXU 192050Z AUTO 14010KT 9999 -RA BKN060/// 11/07 Q1005
EGXC - Coningsby Raf, United Kingdom
Distance from station: SSE 42mi, 68km
Updated: Mon, 19-Oct-2020 9:50pm BST
Clear
Clear
 Wind from SSE
Wind: SSE 10 mph , 17 km/h
Temperature: 11°C
Dew Point: 7°C
Humidity: 77%
Barometer: 1007 hPa
Summary: Clear
Visibility: greater than 7 miles , 10 km
2020/10/19 20:50 EGXC 192050Z 15009KT CAVOK 11/07 Q1007 RMK BLU
 
EGYD - Cranwell Raf, United Kingdom
Distance from station: S 43mi, 69km
Updated: Mon, 19-Oct-2020 9:50pm BST
Mostly Cloudy
Mostly Cloudy
 Wind from SSE
Wind: SSE 17 mph , 28 km/h
Temperature: 10°C
Wind Chill: 7°C
Dew Point: 7°C
Humidity: 82%
Barometer: 1007 hPa
Clouds: Mostly Cloudy
Visibility: 6 miles , 10 km
Cloud details: Mostly Cloudy 3048 m
Mostly Cloudy 4572 m
2020/10/19 20:50 EGYD 192050Z AUTO 15015KT 9999 // BKN100/// BKN150/// 10/07 Q1007
EGNM - Leeds And Bradfo, United Kingdom
Distance from station: WNW 44mi, 71km
Updated: Mon, 19-Oct-2020 9:50pm BST
Clear
Clear
 Wind from SE
Wind: SE 10 mph , 17 km/h
Temperature: 10°C
Wind Chill: 8°C
Dew Point: 6°C
Humidity: 76%
Barometer: 1005 hPa
Summary: Clear
Visibility: greater than 7 miles , 10 km
2020/10/19 20:50 EGNM 192050Z 13009KT CAVOK 10/06 Q1005
 
EGXZ - Topcliffe Raf, United Kingdom
Distance from station: NW 49mi, 79km
Updated: Mon, 19-Oct-2020 9:50pm BST
Rain, Overcast
Rain, Overcast
 Wind from SE
Wind: SE 15 mph , 24 km/h
Temperature: 11°C
Dew Point: 8°C
Humidity: 82%
Barometer: 1005 hPa
Summary: Rain
Clouds: Overcast
Visibility: 6 miles , 10 km
Cloud details: Overcast 1829 m
2020/10/19 20:50 EGXZ 192050Z AUTO 14013KT 9999 RA OVC060/// 11/08 Q1005
EGXE - Leeming Raf, United Kingdom
Distance from station: NW 57mi, 92km
Updated: Mon, 19-Oct-2020 9:50pm BST
Light rain, Overcast
Light rain, Overcast
 Wind from SE
Wind: SE 12 mph , 19 km/h
Temperature: 11°C
Dew Point: 8°C
Humidity: 82%
Barometer: 1005 hPa
Summary: Light Rain
Clouds: Overcast
Visibility: 6 miles , 10 km
Cloud details: Few Clouds 1829 m
Overcast 3048 m
2020/10/19 20:50 EGXE 192050Z AUTO 14010KT 9999 -RA FEW060/// OVC100/// 11/08 Q1005
 
EGYH - Holbeach (aut), United Kingdom
Distance from station: SSE 63mi, 101km
Updated: Mon, 19-Oct-2020 3:50pm BST
NOT Current
Clear
Clear
 Wind from S
Wind: S 17 mph , 28 km/h
Temperature: 14°C
Dew Point: 8°C
Humidity: 67%
Barometer: 1012 hPa
Summary: Clear
Visibility: greater than 7 miles , 10 km
2020/10/19 14:50 EGYH 191450Z 19015KT CAVOK 14/08 Q1012 RMK BLU
EGNX - East Midlands, United Kingdom
Distance from station: SSW 65mi, 104km
Updated: Mon, 19-Oct-2020 9:50pm BST
Few Clouds
Few Clouds
 Wind from SE
Wind: SE 14 mph , 22 km/h
Temperature: 11°C
Dew Point: 6°C
Humidity: 72%
Barometer: 1005 hPa
Clouds: Few Clouds
Visibility: 6 miles , 10 km
Cloud details: Few Clouds 792 m
2020/10/19 20:50 EGNX 192050Z 13012KT 9999 FEW026 11/06 Q1005
 
EGNV - Tees-Side, United Kingdom
Distance from station: NNW 68mi, 109km
Updated: Mon, 19-Oct-2020 9:50pm BST
Few Clouds
Few Clouds
 Wind from S
Wind: S 13 mph , 20 km/h
Temperature: 11°C
Dew Point: 7°C
Humidity: 77%
Barometer: 1005 hPa
Clouds: Few Clouds
Visibility: 6 miles , 10 km
Cloud details: Few Clouds 762 m
2020/10/19 20:50 EGNV 192050Z 17011KT 9999 FEW025 11/07 Q1005
EGCC - Manchester Intl, United Kingdom
Distance from station: WSW 71mi, 114km
Updated: Mon, 19-Oct-2020 9:50pm BST
Clear
Clear
 Wind from SSE
Wind: SSE 8 mph , 13 km/h
Temperature: 11°C
Dew Point: 6°C
Humidity: 72%
Barometer: 1004 hPa
Clouds: Clear
Visibility: 6 miles , 10 km
2020/10/19 20:50 EGCC 192050Z AUTO 15007KT 090V220 9999 NCD 11/06 Q1004 NOSIG

Metar display script from Saratoga-Weather.org

Data updates at regular intervals.